createdAt,value
2018-04-30T00:00:38.169Z,11.50
2018-04-30T00:03:08.483Z,11.50
2018-04-30T00:05:38.223Z,11.50
2018-04-30T00:08:08.902Z,11.50
2018-04-30T00:10:39.052Z,11.40
2018-04-30T00:13:10.361Z,11.40
2018-04-30T00:15:40.228Z,11.40
2018-04-30T00:18:11.521Z,11.40
2018-04-30T00:20:41.822Z,11.30
2018-04-30T00:23:11.918Z,11.30
2018-04-30T00:25:42.042Z,11.30
2018-04-30T00:28:12.245Z,11.20
2018-04-30T00:30:42.442Z,11.20
2018-04-30T00:33:13.308Z,11.10
2018-04-30T00:35:44.164Z,11.00
2018-04-30T00:38:14.758Z,10.90
2018-04-30T00:40:45.387Z,10.90
2018-04-30T00:43:15.536Z,10.90
2018-04-30T00:45:46.132Z,10.90
2018-04-30T00:48:16.380Z,10.90
2018-04-30T00:50:47.345Z,10.80
2018-04-30T00:53:17.243Z,10.70
2018-04-30T00:55:47.601Z,10.60
2018-04-30T00:58:19.219Z,10.60
2018-04-30T01:00:49.021Z,10.60
2018-04-30T01:03:19.914Z,10.50
2018-04-30T01:05:50.284Z,10.50
2018-04-30T01:08:20.395Z,10.50
2018-04-30T01:10:50.540Z,10.50
2018-04-30T01:13:20.294Z,10.50
2018-04-30T01:15:50.371Z,10.50
2018-04-30T01:18:20.670Z,10.50
2018-04-30T01:20:51.725Z,10.40
2018-04-30T01:23:22.018Z,10.40
2018-04-30T01:25:52.307Z,10.40
2018-04-30T01:28:22.796Z,10.40
2018-04-30T01:30:52.327Z,10.30
2018-04-30T01:33:22.435Z,10.40
2018-04-30T01:35:52.686Z,10.40
2018-04-30T01:38:22.862Z,10.40
2018-04-30T01:40:52.926Z,10.40
2018-04-30T01:43:23.019Z,10.30
2018-04-30T01:45:55.889Z,10.20
2018-04-30T01:48:26.043Z,10.20
2018-04-30T01:50:56.298Z,10.20
2018-04-30T01:53:26.660Z,10.20
2018-04-30T01:55:56.754Z,10.20
2018-04-30T01:58:28.260Z,10.10
2018-04-30T02:00:58.755Z,10.00
2018-04-30T02:03:28.840Z,10.00
2018-04-30T02:06:02.459Z,9.90
2018-04-30T02:08:36.005Z,9.90
2018-04-30T02:11:05.469Z,9.90
2018-04-30T02:13:37.137Z,9.90
2018-04-30T02:16:07.651Z,9.70
2018-04-30T02:18:37.946Z,9.80
2018-04-30T02:21:08.012Z,9.70
2018-04-30T02:23:38.960Z,9.70
2018-04-30T02:26:09.520Z,9.60
2018-04-30T02:28:39.780Z,9.60
2018-04-30T02:31:10.101Z,9.60
2018-04-30T02:33:40.862Z,9.50
2018-04-30T02:36:13.772Z,9.40
2018-04-30T02:38:46.705Z,9.30
2018-04-30T02:41:16.999Z,9.20
2018-04-30T02:43:47.132Z,9.20
2018-04-30T02:46:17.463Z,9.10
2018-04-30T02:48:47.725Z,9.00
2018-04-30T02:51:17.468Z,8.90
2018-04-30T02:53:47.577Z,8.70
2018-04-30T02:56:37.476Z,8.60
2018-04-30T02:59:24.118Z,8.50
2018-04-30T03:02:02.551Z,8.40
2018-04-30T03:04:34.280Z,8.40
2018-04-30T03:07:03.695Z,8.30
2018-04-30T03:09:35.180Z,8.20
2018-04-30T03:12:05.635Z,8.20
2018-04-30T03:14:35.978Z,8.20
2018-04-30T03:17:10.750Z,8.20
2018-04-30T03:19:47.471Z,8.00
2018-04-30T03:22:19.441Z,8.10
2018-04-30T03:24:49.524Z,8.10
2018-04-30T03:27:20.466Z,8.00
2018-04-30T03:29:50.711Z,7.90
2018-04-30T03:32:21.073Z,7.90
2018-04-30T03:34:51.184Z,7.80
2018-04-30T03:37:32.545Z,7.70
2018-04-30T03:40:13.522Z,7.60
2018-04-30T03:42:43.630Z,7.60
2018-04-30T03:45:14.903Z,7.60
2018-04-30T03:47:47.951Z,7.50
2018-04-30T03:50:19.031Z,7.60
2018-04-30T03:52:49.252Z,7.50
2018-04-30T03:55:20.229Z,7.50
2018-04-30T03:57:51.094Z,7.50
2018-04-30T04:00:42.109Z,7.50
2018-04-30T04:03:32.476Z,7.60
2018-04-30T04:06:19.375Z,7.60
2018-04-30T04:08:49.641Z,7.50
2018-04-30T04:11:20.592Z,7.50
2018-04-30T04:13:50.942Z,7.50
2018-04-30T04:16:20.779Z,7.60
2018-04-30T04:18:50.905Z,7.70
2018-04-30T04:21:20.983Z,7.70
2018-04-30T04:23:51.069Z,7.70
2018-04-30T04:26:21.470Z,7.70
2018-04-30T04:31:29.373Z,7.80
2018-04-30T04:34:00.240Z,7.70
2018-04-30T04:36:31.497Z,7.80
2018-04-30T04:39:01.619Z,7.80
2018-04-30T04:41:31.700Z,7.80
2018-04-30T04:44:02.540Z,7.80
2018-04-30T04:46:32.630Z,7.80
2018-04-30T04:49:02.694Z,7.80
2018-04-30T04:51:40.689Z,7.80
2018-04-30T04:54:15.608Z,7.80
2018-04-30T04:56:45.722Z,7.80
2018-04-30T04:59:15.772Z,7.80
2018-04-30T05:01:46.257Z,7.80
2018-04-30T05:04:16.351Z,7.80
2018-04-30T05:06:47.847Z,7.80
2018-04-30T05:09:18.594Z,7.80
2018-04-30T05:11:48.354Z,7.80
2018-04-30T05:14:20.159Z,7.80
2018-04-30T05:19:27.737Z,7.80
2018-04-30T05:21:58.472Z,7.80
2018-04-30T05:24:33.150Z,7.80
2018-04-30T05:27:03.184Z,7.90
2018-04-30T05:29:33.250Z,7.90
2018-04-30T05:32:04.703Z,7.90
2018-04-30T05:34:47.449Z,7.90
2018-04-30T05:37:18.285Z,8.00
2018-04-30T05:39:49.844Z,8.00
2018-04-30T05:42:20.548Z,8.10
2018-04-30T05:44:52.921Z,8.20
2018-04-30T05:47:23.004Z,8.30
2018-04-30T05:49:53.134Z,8.40
2018-04-30T05:52:23.263Z,8.40
2018-04-30T05:55:02.353Z,8.40
2018-04-30T05:57:33.706Z,8.40
2018-04-30T06:00:03.456Z,8.40
2018-04-30T06:02:33.577Z,8.50
2018-04-30T06:05:03.348Z,8.50
2018-04-30T06:07:34.307Z,8.60
2018-04-30T06:10:03.721Z,8.70
2018-04-30T06:12:33.790Z,8.70
2018-04-30T06:15:05.634Z,8.70
2018-04-30T06:17:36.880Z,8.90
2018-04-30T06:20:06.822Z,9.10
2018-04-30T06:22:37.647Z,9.20
2018-04-30T06:25:07.751Z,9.30
2018-04-30T06:27:38.124Z,9.20
2018-04-30T06:30:09.072Z,9.10
2018-04-30T06:32:40.180Z,9.10
2018-04-30T06:35:11.090Z,9.70
2018-04-30T06:37:41.192Z,9.60
2018-04-30T06:40:11.842Z,10.10
2018-04-30T06:42:41.617Z,10.50
2018-04-30T06:45:12.491Z,10.90
2018-04-30T06:47:43.351Z,11.30
2018-04-30T06:50:14.174Z,11.60
2018-04-30T06:52:44.298Z,11.60
2018-04-30T06:55:14.387Z,12.00
2018-04-30T06:57:45.287Z,11.70
2018-04-30T07:00:15.581Z,11.70
2018-04-30T07:02:45.863Z,11.40
2018-04-30T07:05:16.142Z,11.40
2018-04-30T07:07:46.259Z,11.50
2018-04-30T07:10:17.741Z,11.70
2018-04-30T07:12:48.620Z,12.00
2018-04-30T07:15:18.721Z,12.00
2018-04-30T07:17:49.036Z,12.30
2018-04-30T07:20:19.323Z,12.50
2018-04-30T07:22:49.640Z,12.50
2018-04-30T07:25:19.961Z,12.50
2018-04-30T07:27:50.352Z,12.60
2018-04-30T07:30:20.644Z,12.50
2018-04-30T07:32:50.743Z,12.20
2018-04-30T07:35:20.893Z,12.20
2018-04-30T07:37:51.010Z,12.10
2018-04-30T07:40:21.111Z,12.00
2018-04-30T07:42:51.508Z,12.10
2018-04-30T07:45:23.874Z,12.20
2018-04-30T07:47:54.176Z,12.60
2018-04-30T07:50:25.051Z,13.30
2018-04-30T07:52:55.927Z,13.80
2018-04-30T07:55:26.694Z,13.80
2018-04-30T07:57:58.161Z,13.70
2018-04-30T08:00:28.452Z,13.60
2018-04-30T08:02:58.815Z,13.50
2018-04-30T08:05:29.190Z,13.30
2018-04-30T08:08:00.046Z,14.00
2018-04-30T08:10:30.298Z,13.90
2018-04-30T08:13:00.673Z,14.30
2018-04-30T08:15:30.755Z,14.10
2018-04-30T08:18:00.828Z,13.80
2018-04-30T08:20:31.685Z,14.20
2018-04-30T08:23:02.740Z,14.40
2018-04-30T08:25:32.796Z,14.40
2018-04-30T08:28:02.910Z,14.50
2018-04-30T08:30:33.744Z,14.50
2018-04-30T08:33:03.847Z,14.40
2018-04-30T08:35:34.127Z,14.10
2018-04-30T08:38:04.216Z,13.90
2018-04-30T08:40:35.303Z,13.70
2018-04-30T08:43:05.382Z,13.80
2018-04-30T08:45:36.143Z,13.60
2018-04-30T08:48:05.927Z,13.80
2018-04-30T08:50:36.023Z,14.20
2018-04-30T08:53:06.299Z,14.10
2018-04-30T08:55:36.731Z,14.00
2018-04-30T08:58:06.453Z,14.10
2018-04-30T09:00:38.171Z,13.70
2018-04-30T09:03:08.460Z,13.70
2018-04-30T09:05:38.785Z,13.90
2018-04-30T09:08:08.859Z,13.80
2018-04-30T09:10:39.934Z,13.70
2018-04-30T09:13:11.024Z,13.70
2018-04-30T09:15:41.299Z,13.70
2018-04-30T09:18:12.171Z,14.00
2018-04-30T09:20:42.511Z,14.00
2018-04-30T09:23:12.899Z,14.20
2018-04-30T09:25:42.989Z,14.30
2018-04-30T09:28:13.350Z,14.40
2018-04-30T09:30:43.698Z,14.70
2018-04-30T09:33:14.565Z,15.30
2018-04-30T09:35:45.959Z,15.30
2018-04-30T09:38:17.615Z,15.20
2018-04-30T09:40:47.726Z,15.20
2018-04-30T09:43:17.922Z,15.00
2018-04-30T09:45:48.815Z,15.20
2018-04-30T09:48:20.891Z,15.20
2018-04-30T09:50:51.838Z,15.40
2018-04-30T09:53:22.668Z,15.30
2018-04-30T09:55:52.735Z,15.40
2018-04-30T09:58:22.266Z,15.70
2018-04-30T10:00:52.347Z,16.00
2018-04-30T10:03:23.225Z,16.20
2018-04-30T10:05:53.454Z,16.20
2018-04-30T10:08:23.534Z,16.40
2018-04-30T10:10:53.815Z,16.90
2018-04-30T10:13:24.806Z,16.90
2018-04-30T10:15:55.195Z,16.80
2018-04-30T10:18:25.290Z,16.60
2018-04-30T10:20:55.138Z,16.90
2018-04-30T10:23:25.492Z,17.20
2018-04-30T10:25:55.755Z,16.80
2018-04-30T10:28:26.855Z,16.00
2018-04-30T10:30:57.145Z,16.00
2018-04-30T10:33:27.240Z,16.10
2018-04-30T10:35:57.518Z,16.10
2018-04-30T10:38:28.023Z,16.10
2018-04-30T10:40:59.185Z,16.00
2018-04-30T10:43:29.237Z,16.20
2018-04-30T10:45:59.637Z,16.50
2018-04-30T10:48:29.830Z,16.40
2018-04-30T10:51:00.125Z,16.70
2018-04-30T10:53:30.325Z,16.60
2018-04-30T10:56:00.432Z,16.50
2018-04-30T10:58:31.442Z,16.50
2018-04-30T11:01:02.268Z,16.50
2018-04-30T11:03:32.777Z,16.30
2018-04-30T11:06:03.009Z,16.20
2018-04-30T11:08:33.432Z,16.80
2018-04-30T11:11:03.373Z,17.40
2018-04-30T11:13:34.154Z,17.50
2018-04-30T11:16:04.354Z,17.50
2018-04-30T11:18:34.508Z,16.60
2018-04-30T11:21:06.683Z,16.00
2018-04-30T11:23:36.808Z,15.50
2018-04-30T11:26:08.533Z,15.20
2018-04-30T11:28:38.659Z,14.50
2018-04-30T11:31:08.981Z,14.20
2018-04-30T11:33:39.213Z,14.00
2018-04-30T11:36:10.207Z,13.80
2018-04-30T11:38:42.516Z,13.70
2018-04-30T11:41:12.579Z,13.70
2018-04-30T11:43:43.151Z,13.70
2018-04-30T11:46:13.257Z,13.70
2018-04-30T11:48:43.605Z,13.90
2018-04-30T11:51:14.221Z,13.90
2018-04-30T11:53:44.527Z,13.90
2018-04-30T11:56:14.838Z,14.20
2018-04-30T11:58:45.016Z,15.10
2018-04-30T12:01:15.277Z,15.90
2018-04-30T12:03:45.426Z,16.70
2018-04-30T12:06:16.377Z,17.70
2018-04-30T12:08:47.477Z,17.50
2018-04-30T12:11:18.123Z,17.50
2018-04-30T12:13:48.769Z,17.30
2018-04-30T12:16:19.756Z,17.30
2018-04-30T12:18:49.932Z,16.80
2018-04-30T12:21:21.275Z,15.30
2018-04-30T12:23:52.003Z,15.30
2018-04-30T12:26:22.866Z,15.30
2018-04-30T12:28:53.194Z,15.20
2018-04-30T12:31:22.521Z,15.80
2018-04-30T12:33:52.808Z,16.40
2018-04-30T12:36:23.095Z,16.20
2018-04-30T12:38:53.422Z,15.90
2018-04-30T12:41:24.465Z,16.20
2018-04-30T12:43:54.788Z,16.20
2018-04-30T12:46:24.876Z,16.60
2018-04-30T12:48:55.950Z,17.00
2018-04-30T12:51:26.254Z,17.00
2018-04-30T12:53:56.936Z,17.00
2018-04-30T12:56:27.535Z,16.80
2018-04-30T12:58:58.139Z,16.70
2018-04-30T13:01:28.454Z,16.60
2018-04-30T13:03:58.588Z,16.80
2018-04-30T13:06:28.852Z,17.00
2018-04-30T13:08:59.233Z,17.40
2018-04-30T13:11:31.135Z,17.80
2018-04-30T13:14:01.449Z,17.60
2018-04-30T13:16:31.736Z,17.10
2018-04-30T13:19:02.391Z,17.20
2018-04-30T13:21:32.749Z,17.30
2018-04-30T13:24:02.853Z,16.90
2018-04-30T13:26:33.658Z,16.60
2018-04-30T13:29:03.610Z,16.30
2018-04-30T13:31:34.290Z,15.70
2018-04-30T13:34:04.818Z,15.10
2018-04-30T13:36:34.913Z,15.10
2018-04-30T13:39:04.257Z,15.30
2018-04-30T13:41:35.307Z,15.60
2018-04-30T13:44:05.820Z,15.70
2018-04-30T13:46:36.553Z,15.60
2018-04-30T13:49:06.623Z,15.50
2018-04-30T13:51:36.910Z,15.10
2018-04-30T13:54:06.991Z,14.70
2018-04-30T13:56:37.145Z,14.90
2018-04-30T13:59:08.080Z,15.30
2018-04-30T14:01:38.176Z,15.50
2018-04-30T14:04:08.287Z,15.60
2018-04-30T14:06:38.132Z,15.80
2018-04-30T14:09:07.888Z,15.90
2018-04-30T14:11:38.173Z,16.00
2018-04-30T14:14:08.527Z,16.10
2018-04-30T14:16:39.394Z,15.90
2018-04-30T14:19:09.865Z,15.90
2018-04-30T14:21:40.174Z,15.60
2018-04-30T14:24:10.493Z,15.70
2018-04-30T14:26:41.251Z,16.00
2018-04-30T14:29:11.623Z,16.10
2018-04-30T14:31:42.786Z,15.50
2018-04-30T14:34:14.491Z,15.30
2018-04-30T14:36:44.769Z,15.30
2018-04-30T14:39:15.310Z,14.80
2018-04-30T14:41:45.390Z,15.00
2018-04-30T14:44:15.767Z,15.30
2018-04-30T14:46:46.880Z,15.80
2018-04-30T14:49:16.974Z,15.80
2018-04-30T14:51:46.744Z,15.80
2018-04-30T14:54:17.671Z,15.50
2018-04-30T14:56:48.865Z,15.30
2018-04-30T14:59:19.108Z,15.30
2018-04-30T15:01:49.205Z,15.40
2018-04-30T15:04:20.422Z,15.50
2018-04-30T15:06:51.731Z,15.70
2018-04-30T15:09:22.533Z,15.50
2018-04-30T15:11:52.614Z,15.40
2018-04-30T15:14:23.010Z,15.40
2018-04-30T15:16:53.094Z,15.10
2018-04-30T15:19:23.760Z,14.60
2018-04-30T15:21:54.828Z,14.40
2018-04-30T15:24:25.187Z,14.40
2018-04-30T15:26:55.428Z,14.60
2018-04-30T15:29:26.336Z,14.80
2018-04-30T15:31:56.833Z,14.80
2018-04-30T15:34:26.920Z,15.00
2018-04-30T15:36:57.015Z,15.20
2018-04-30T15:39:27.307Z,15.50
2018-04-30T15:41:57.447Z,15.70
2018-04-30T15:44:27.704Z,15.60
2018-04-30T15:46:58.079Z,15.40
2018-04-30T15:49:28.198Z,15.60
2018-04-30T15:51:58.322Z,15.70
2018-04-30T15:54:28.859Z,15.70
2018-04-30T15:56:59.478Z,15.70
2018-04-30T15:59:29.585Z,15.70
2018-04-30T16:01:59.687Z,15.60
2018-04-30T16:04:31.379Z,15.30
2018-04-30T16:07:02.590Z,15.50
2018-04-30T16:09:32.761Z,15.50
2018-04-30T16:12:03.102Z,15.60
2018-04-30T16:14:33.229Z,15.70
2018-04-30T16:17:03.628Z,15.70
2018-04-30T16:19:34.512Z,15.80
2018-04-30T16:22:04.267Z,15.80
2018-04-30T16:24:34.351Z,15.60
2018-04-30T16:27:04.934Z,15.60
2018-04-30T16:29:35.035Z,15.50
2018-04-30T16:32:04.580Z,15.50
2018-04-30T16:34:34.953Z,15.30
2018-04-30T16:37:04.395Z,15.30
2018-04-30T16:39:34.284Z,15.30
2018-04-30T16:42:04.158Z,15.00
2018-04-30T16:44:34.465Z,14.70
2018-04-30T16:47:05.336Z,14.90
2018-04-30T16:49:35.891Z,14.90
2018-04-30T16:52:06.015Z,14.80
2018-04-30T16:54:36.079Z,14.50
2018-04-30T16:57:06.788Z,14.20
2018-04-30T16:59:36.535Z,14.20
2018-04-30T17:02:08.042Z,13.60
2018-04-30T17:04:38.161Z,13.60
2018-04-30T17:07:08.258Z,13.60
2018-04-30T17:09:39.295Z,14.00
2018-04-30T17:12:09.391Z,14.40
2018-04-30T17:14:39.513Z,14.50
2018-04-30T17:17:09.632Z,14.40
2018-04-30T17:19:39.545Z,14.10
2018-04-30T17:22:09.666Z,13.80
2018-04-30T17:24:40.006Z,13.50
2018-04-30T17:27:10.265Z,13.20
2018-04-30T17:29:41.334Z,13.10
2018-04-30T17:32:11.222Z,12.90
2018-04-30T17:34:42.331Z,12.70
2018-04-30T17:37:13.196Z,12.50
2018-04-30T17:39:44.056Z,12.50
2018-04-30T17:42:14.417Z,12.50
2018-04-30T17:44:44.700Z,12.50
2018-04-30T17:47:14.471Z,12.40
2018-04-30T17:49:45.184Z,12.40
2018-04-30T17:52:15.373Z,12.30
2018-04-30T17:54:46.681Z,12.30
2018-04-30T17:57:16.962Z,12.20
2018-04-30T17:59:47.301Z,12.00
2018-04-30T18:02:18.007Z,11.90
2018-04-30T18:04:48.128Z,11.90
2018-04-30T18:07:18.453Z,11.70
2018-04-30T18:09:50.182Z,11.30
2018-04-30T18:12:26.076Z,11.30
2018-04-30T18:14:56.414Z,11.20
2018-04-30T18:17:36.244Z,11.00
2018-04-30T18:20:07.668Z,10.90
2018-04-30T18:22:44.244Z,10.70
2018-04-30T18:25:16.979Z,10.50
2018-04-30T18:27:48.163Z,10.40
2018-04-30T18:30:19.961Z,10.20
2018-04-30T18:32:50.920Z,10.10
2018-04-30T18:35:21.956Z,10.00
2018-04-30T18:37:52.106Z,9.90
2018-04-30T18:40:22.386Z,9.90
2018-04-30T18:42:52.788Z,9.70
2018-04-30T18:45:22.995Z,9.70
2018-04-30T18:47:53.235Z,9.70
2018-04-30T18:50:23.687Z,9.60
2018-04-30T18:55:39.918Z,9.30
2018-04-30T18:58:10.100Z,9.20
2018-04-30T19:00:40.949Z,9.10
2018-04-30T19:03:11.349Z,9.10
2018-04-30T19:05:41.553Z,9.00
2018-04-30T19:08:20.864Z,8.90
2018-04-30T19:10:51.044Z,8.90
2018-04-30T19:13:21.166Z,8.80
2018-04-30T19:15:51.306Z,8.80
2018-04-30T19:18:22.490Z,8.80
2018-04-30T19:20:52.705Z,8.80
2018-04-30T19:23:23.571Z,8.70
2018-04-30T19:26:17.808Z,8.70
2018-04-30T19:40:19.689Z,8.40
2018-04-30T19:53:21.060Z,8.40
2018-04-30T20:11:24.027Z,8.10
2018-04-30T20:38:21.285Z,7.70
2018-04-30T20:44:18.963Z,7.40
2018-04-30T20:47:13.246Z,7.30
2018-04-30T20:49:44.286Z,7.20
2018-04-30T20:52:14.699Z,7.20
2018-04-30T20:54:45.087Z,7.20
2018-04-30T20:57:15.517Z,7.10
2018-04-30T20:59:45.869Z,7.10
2018-04-30T21:02:49.473Z,7.10
2018-04-30T21:05:21.805Z,7.10
2018-04-30T21:07:52.113Z,7.10
2018-04-30T21:10:23.076Z,7.10
2018-04-30T21:12:53.145Z,7.10
2018-04-30T21:15:24.154Z,7.20
2018-04-30T21:18:18.463Z,7.20
2018-04-30T21:23:41.584Z,7.20
2018-04-30T21:26:11.722Z,7.20
2018-04-30T21:28:51.591Z,7.30
2018-04-30T21:31:22.733Z,7.50
2018-04-30T21:37:12.470Z,7.50
2018-04-30T21:39:42.818Z,7.60
2018-04-30T21:42:12.994Z,7.50
2018-04-30T21:44:43.174Z,7.60
2018-04-30T21:47:20.035Z,7.50
2018-04-30T22:05:49.155Z,7.30
2018-04-30T22:11:25.192Z,7.30
2018-04-30T22:14:23.355Z,7.20
2018-04-30T22:20:00.590Z,7.30
2018-04-30T22:22:31.420Z,7.30
2018-04-30T22:28:35.053Z,7.20
2018-04-30T22:31:14.886Z,7.20
2018-04-30T22:34:06.726Z,7.10
2018-04-30T22:43:09.570Z,7.10
2018-04-30T22:45:40.737Z,7.20
2018-04-30T22:57:52.608Z,7.20
2018-04-30T23:00:23.144Z,7.20
2018-04-30T23:06:27.315Z,7.10
2018-04-30T23:12:04.740Z,7.10
2018-04-30T23:17:42.143Z,7.20
2018-04-30T23:20:20.239Z,7.10
2018-04-30T23:22:50.966Z,7.10
2018-04-30T23:25:47.863Z,7.10
2018-04-30T23:28:21.084Z,7.10
2018-04-30T23:33:58.385Z,7.20
2018-04-30T23:36:27.817Z,7.20
2018-04-30T23:39:00.143Z,7.20
2018-04-30T23:41:30.663Z,7.20
2018-04-30T23:44:01.043Z,7.20
2018-04-30T23:46:31.327Z,7.20
2018-04-30T23:49:02.690Z,7.10
2018-04-30T23:51:34.985Z,7.10
2018-04-30T23:57:05.115Z,7.00
2018-04-30T23:59:35.190Z,6.90
